createdAt,value
2022-10-05T00:00:58.503Z,82.17
2022-10-05T00:03:27.376Z,82.32
2022-10-05T00:05:53.928Z,82.20
2022-10-05T00:08:24.202Z,82.23
2022-10-05T00:10:51.541Z,82.38
2022-10-05T00:13:24.802Z,82.71
2022-10-05T00:15:57.989Z,82.58
2022-10-05T00:18:24.385Z,82.58
2022-10-05T00:20:50.819Z,82.83
2022-10-05T00:23:24.688Z,82.60
2022-10-05T00:25:51.299Z,82.70
2022-10-05T00:28:27.625Z,83.12
2022-10-05T00:30:59.110Z,83.08
2022-10-05T00:33:27.423Z,83.07
2022-10-05T00:35:55.105Z,83.22
2022-10-05T00:38:21.571Z,83.27
2022-10-05T00:41:06.188Z,83.13
2022-10-05T00:44:10.261Z,82.93
2022-10-05T00:47:10.579Z,83.06
2022-10-05T00:49:52.254Z,83.26
2022-10-05T00:52:39.995Z,83.38
2022-10-05T00:55:27.790Z,83.19
2022-10-05T00:58:33.739Z,83.21
2022-10-05T01:01:16.683Z,83.21
2022-10-05T01:03:55.248Z,83.31
2022-10-05T01:06:33.548Z,83.34
2022-10-05T01:09:21.605Z,83.10
2022-10-05T01:12:03.671Z,83.29
2022-10-05T01:14:53.483Z,83.12
2022-10-05T01:17:28.819Z,83.47
2022-10-05T01:20:22.776Z,83.53
2022-10-05T01:23:19.469Z,83.72
2022-10-05T01:26:00.952Z,83.66
2022-10-05T01:28:40.981Z,83.66
2022-10-05T01:31:12.886Z,83.68
2022-10-05T01:33:52.238Z,83.77
2022-10-05T01:36:33.924Z,83.95
2022-10-05T01:39:32.789Z,83.69
2022-10-05T01:42:04.851Z,83.80
2022-10-05T01:44:37.214Z,84.15
2022-10-05T01:47:23.349Z,84.05
2022-10-05T01:50:04.626Z,84.26
2022-10-05T01:52:51.129Z,84.23
2022-10-05T01:55:34.154Z,84.24
2022-10-05T01:58:00.506Z,84.22
2022-10-05T02:00:29.938Z,84.30
2022-10-05T02:03:14.096Z,84.34
2022-10-05T02:05:51.683Z,84.30
2022-10-05T02:08:25.198Z,84.43
2022-10-05T02:11:00.381Z,84.59
2022-10-05T02:13:40.319Z,84.52
2022-10-05T02:16:19.547Z,84.61
2022-10-05T02:19:20.268Z,84.48
2022-10-05T02:21:51.851Z,84.89
2022-10-05T02:24:31.105Z,84.64
2022-10-05T02:26:58.762Z,84.71
2022-10-05T02:29:30.098Z,84.76
2022-10-05T02:32:20.307Z,84.88
2022-10-05T02:34:46.728Z,84.91
2022-10-05T02:37:25.204Z,85.04
2022-10-05T02:40:06.529Z,84.81
2022-10-05T02:42:51.147Z,84.91
2022-10-05T02:45:26.702Z,84.96
2022-10-05T02:47:58.277Z,84.94
2022-10-05T02:50:45.217Z,85.05
2022-10-05T02:53:26.592Z,85.36
2022-10-05T02:56:22.009Z,85.59
2022-10-05T02:59:14.636Z,85.29
2022-10-05T03:02:00.303Z,85.54
2022-10-05T03:04:46.385Z,85.18
2022-10-05T03:07:22.781Z,85.24
2022-10-05T03:10:11.907Z,85.33
2022-10-05T03:13:10.491Z,85.34
2022-10-05T03:15:45.872Z,85.21
2022-10-05T03:18:29.934Z,85.37
2022-10-05T03:21:14.015Z,85.32
2022-10-05T03:23:51.063Z,85.46
2022-10-05T03:26:50.209Z,85.62
2022-10-05T03:29:25.618Z,85.49
2022-10-05T03:31:59.999Z,85.44
2022-10-05T03:34:56.712Z,85.35
2022-10-05T03:37:46.064Z,85.46
2022-10-05T03:40:40.590Z,85.12
2022-10-05T03:43:33.485Z,84.95
2022-10-05T03:46:02.973Z,84.84
2022-10-05T03:48:35.170Z,84.71
2022-10-05T03:51:18.342Z,84.48
2022-10-05T03:53:49.714Z,84.20
2022-10-05T03:56:41.779Z,84.15
2022-10-05T03:59:32.578Z,83.75
2022-10-05T04:02:21.444Z,83.72
2022-10-05T04:05:00.988Z,84.01
2022-10-05T04:07:46.835Z,83.37
2022-10-05T04:10:19.086Z,83.08
2022-10-05T04:12:55.114Z,82.62
2022-10-05T04:15:37.629Z,82.74
2022-10-05T04:18:13.528Z,82.01
2022-10-05T04:20:46.677Z,82.12
2022-10-05T04:23:28.625Z,82.04
2022-10-05T04:26:02.248Z,82.06
2022-10-05T04:28:46.025Z,81.57
2022-10-05T04:31:22.680Z,81.73
2022-10-05T04:33:57.511Z,81.53
2022-10-05T04:36:39.042Z,81.57
2022-10-05T04:39:17.771Z,81.58
2022-10-05T04:42:09.034Z,81.19
2022-10-05T04:44:59.529Z,81.41
2022-10-05T04:47:44.356Z,81.23
2022-10-05T04:50:19.879Z,80.91
2022-10-05T04:53:14.727Z,81.22
2022-10-05T04:56:14.438Z,81.15
2022-10-05T04:59:02.929Z,81.24
2022-10-05T05:02:00.106Z,81.69
2022-10-05T05:05:01.885Z,81.69
2022-10-05T05:07:53.678Z,81.53
2022-10-05T05:10:41.097Z,81.97
2022-10-05T05:13:46.331Z,82.10
2022-10-05T05:16:21.998Z,82.28
2022-10-05T05:19:06.680Z,82.13
2022-10-05T05:21:39.647Z,82.31
2022-10-05T05:24:40.119Z,82.64
2022-10-05T05:27:28.419Z,82.86
2022-10-05T05:30:18.639Z,82.96
2022-10-05T05:33:18.098Z,82.96
2022-10-05T05:35:50.530Z,83.14
2022-10-05T05:38:35.466Z,83.05
2022-10-05T05:41:09.675Z,83.52
2022-10-05T05:44:11.082Z,83.33
2022-10-05T05:47:02.236Z,83.39
2022-10-05T05:50:07.287Z,83.31
2022-10-05T05:52:49.286Z,83.49
2022-10-05T05:55:35.510Z,83.53
2022-10-05T05:58:16.837Z,83.24
2022-10-05T06:00:49.206Z,83.51
2022-10-05T06:03:39.934Z,83.38
2022-10-05T06:06:10.606Z,83.31
2022-10-05T06:08:43.217Z,83.29
2022-10-05T06:11:12.802Z,83.24
2022-10-05T06:13:42.564Z,83.13
2022-10-05T06:16:37.087Z,83.13
2022-10-05T06:19:10.688Z,83.26
2022-10-05T06:22:02.160Z,83.35
2022-10-05T06:24:38.671Z,83.16
2022-10-05T06:27:34.253Z,83.07
2022-10-05T06:30:09.901Z,82.81
2022-10-05T06:33:10.519Z,83.16
2022-10-05T06:35:54.946Z,83.19
2022-10-05T06:38:41.480Z,83.26
2022-10-05T06:41:23.211Z,83.26
2022-10-05T06:43:57.155Z,83.25
2022-10-05T06:46:30.090Z,83.20
2022-10-05T06:49:22.645Z,83.54
2022-10-05T06:52:15.585Z,83.55
2022-10-05T06:54:45.863Z,83.25
2022-10-05T06:57:32.240Z,83.08
2022-10-05T07:00:27.467Z,83.27
2022-10-05T07:03:04.042Z,83.33
2022-10-05T07:05:52.519Z,83.45
2022-10-05T07:08:30.909Z,82.95
2022-10-05T07:11:25.900Z,83.07
2022-10-05T07:14:04.422Z,82.90
2022-10-05T07:16:33.915Z,82.82
2022-10-05T07:19:22.064Z,82.57
2022-10-05T07:24:58.144Z,82.20
2022-10-05T07:27:27.761Z,82.59
2022-10-05T07:30:03.308Z,82.38
2022-10-05T07:32:44.594Z,82.27
2022-10-05T07:36:06.185Z,82.33
2022-10-05T07:39:11.331Z,82.26
2022-10-05T07:41:48.182Z,81.52
2022-10-05T07:44:36.960Z,81.76
2022-10-05T07:47:11.932Z,81.53
2022-10-05T07:49:38.686Z,81.37
2022-10-05T07:52:11.499Z,81.20
2022-10-05T07:54:52.899Z,81.42
2022-10-05T07:57:25.342Z,81.45
2022-10-05T08:00:10.668Z,81.32
2022-10-05T08:02:51.124Z,81.39
2022-10-05T08:05:37.543Z,81.23
2022-10-05T08:08:26.180Z,81.37
2022-10-05T08:11:12.507Z,81.34
2022-10-05T08:14:00.314Z,80.90
2022-10-05T08:16:30.994Z,80.67
2022-10-05T08:19:04.406Z,80.69
2022-10-05T08:21:38.529Z,80.48
2022-10-05T08:24:22.903Z,80.97
2022-10-05T08:27:05.511Z,80.34
2022-10-05T08:29:42.146Z,80.35
2022-10-05T08:32:18.962Z,80.25
2022-10-05T08:34:52.299Z,79.70
2022-10-05T08:37:21.459Z,79.76
2022-10-05T08:40:00.379Z,79.86
2022-10-05T08:42:48.682Z,79.56
2022-10-05T08:45:30.114Z,80.08
2022-10-05T08:48:17.905Z,79.66
2022-10-05T08:51:17.999Z,79.52
2022-10-05T08:54:14.973Z,79.56
2022-10-05T08:56:45.859Z,78.60
2022-10-05T08:59:18.185Z,78.72
2022-10-05T09:01:59.862Z,78.43
2022-10-05T09:04:47.301Z,78.83
2022-10-05T09:07:23.653Z,78.60
2022-10-05T09:10:02.648Z,79.57
2022-10-05T09:12:41.266Z,78.33
2022-10-05T09:15:40.119Z,78.83
2022-10-05T09:18:33.291Z,78.49
2022-10-05T09:21:05.650Z,79.24
2022-10-05T09:23:40.347Z,79.40
2022-10-05T09:26:42.403Z,79.96
2022-10-05T09:29:14.446Z,80.03
2022-10-05T09:32:11.852Z,79.95
2022-10-05T09:35:12.850Z,80.04
2022-10-05T09:37:59.815Z,80.51
2022-10-05T09:40:48.258Z,79.89
2022-10-05T09:43:40.950Z,80.34
2022-10-05T09:46:29.027Z,80.06
2022-10-05T09:49:03.873Z,80.08
2022-10-05T09:51:56.699Z,80.16
2022-10-05T09:54:34.023Z,80.22
2022-10-05T09:57:12.746Z,79.68
2022-10-05T09:59:48.369Z,79.58
2022-10-05T10:02:20.729Z,80.02
2022-10-05T10:05:20.131Z,79.36
2022-10-05T10:08:16.917Z,79.62
2022-10-05T10:11:13.812Z,79.51
2022-10-05T10:13:52.112Z,78.85
2022-10-05T10:16:49.605Z,79.09
2022-10-05T10:19:37.576Z,79.09
2022-10-05T10:22:19.162Z,79.80
2022-10-05T10:25:11.179Z,79.38
2022-10-05T10:27:40.684Z,79.31
2022-10-05T10:30:45.697Z,78.74
2022-10-05T10:33:39.802Z,79.39
2022-10-05T10:36:15.311Z,78.70
2022-10-05T10:38:58.369Z,79.19
2022-10-05T10:41:53.371Z,78.32
2022-10-05T10:44:25.746Z,78.41
2022-10-05T10:47:30.039Z,78.40
2022-10-05T10:50:28.302Z,78.58
2022-10-05T10:53:09.918Z,78.78
2022-10-05T10:56:12.267Z,77.63
2022-10-05T10:59:04.533Z,77.80
2022-10-05T11:01:36.588Z,78.48
2022-10-05T11:04:18.289Z,77.91
2022-10-05T11:07:06.533Z,78.29
2022-10-05T11:10:06.356Z,78.04
2022-10-05T11:12:45.156Z,77.88
2022-10-05T11:15:42.588Z,78.21
2022-10-05T11:18:17.665Z,77.40
2022-10-05T11:21:11.848Z,76.41
2022-10-05T11:23:50.973Z,76.68
2022-10-05T11:26:40.973Z,77.61
2022-10-05T11:29:25.918Z,77.19
2022-10-05T11:32:01.434Z,76.57
2022-10-05T11:34:27.867Z,76.45
2022-10-05T11:37:22.056Z,76.05
2022-10-05T11:40:24.762Z,76.06
2022-10-05T11:43:09.732Z,75.30
2022-10-05T11:45:45.246Z,76.07
2022-10-05T11:48:36.058Z,75.64
2022-10-05T11:51:12.004Z,75.33
2022-10-05T11:54:03.306Z,75.72
2022-10-05T11:56:35.891Z,74.71
2022-10-05T11:59:14.929Z,75.40
2022-10-05T12:01:52.430Z,74.77
2022-10-05T12:04:47.941Z,74.54
2022-10-05T12:07:35.692Z,74.49
2022-10-05T12:10:29.025Z,75.33
2022-10-05T12:13:01.497Z,74.65
2022-10-05T12:15:48.109Z,73.98
2022-10-05T12:18:17.575Z,73.77
2022-10-05T12:20:49.847Z,74.77
2022-10-05T12:23:33.485Z,74.47
2022-10-05T12:26:05.696Z,73.33
2022-10-05T12:28:43.952Z,74.01
2022-10-05T12:31:29.046Z,73.39
2022-10-05T12:34:32.684Z,73.16
2022-10-05T12:37:11.491Z,74.48
2022-10-05T12:40:08.068Z,73.57
2022-10-05T12:43:21.782Z,74.37
2022-10-05T12:46:17.707Z,72.93
2022-10-05T12:49:14.872Z,72.14
2022-10-05T12:52:02.390Z,72.90
2022-10-05T12:54:37.723Z,71.30
2022-10-05T12:57:27.511Z,72.94
2022-10-05T13:00:22.719Z,72.11
2022-10-05T13:03:17.890Z,73.55
2022-10-05T13:05:52.217Z,73.92
2022-10-05T13:08:46.770Z,73.99
2022-10-05T13:11:30.297Z,73.15
2022-10-05T13:14:14.809Z,73.28
2022-10-05T13:16:56.920Z,72.69
2022-10-05T13:19:39.296Z,72.76
2022-10-05T13:22:20.782Z,72.42
2022-10-05T13:25:02.426Z,72.04
2022-10-05T13:27:36.854Z,72.29
2022-10-05T13:30:15.788Z,72.99
2022-10-05T13:32:47.935Z,71.95
2022-10-05T13:35:35.837Z,72.74
2022-10-05T13:38:34.428Z,72.10
2022-10-05T13:41:17.719Z,71.53
2022-10-05T13:43:58.866Z,70.05
2022-10-05T13:46:33.152Z,68.72
2022-10-05T13:49:14.362Z,70.43
2022-10-05T13:52:08.448Z,70.83
2022-10-05T13:54:43.052Z,71.44
2022-10-05T13:57:44.959Z,69.23
2022-10-05T14:00:26.506Z,69.71
2022-10-05T14:02:56.657Z,70.03
2022-10-05T14:05:31.436Z,71.35
2022-10-05T14:08:16.534Z,71.69
2022-10-05T14:10:46.104Z,71.16
2022-10-05T14:13:12.787Z,70.92
2022-10-05T14:15:42.217Z,71.92
2022-10-05T14:18:26.358Z,70.93
2022-10-05T14:21:08.077Z,71.77
2022-10-05T14:23:35.128Z,72.11
2022-10-05T14:26:04.436Z,71.38
2022-10-05T14:28:34.961Z,72.22
2022-10-05T14:31:29.542Z,71.21
2022-10-05T14:33:56.038Z,71.69
2022-10-05T14:36:34.981Z,71.49
2022-10-05T14:39:04.829Z,72.67
2022-10-05T14:41:37.227Z,71.94
2022-10-05T14:44:09.527Z,72.71
2022-10-05T14:46:38.540Z,72.74
2022-10-05T14:49:12.425Z,72.36
2022-10-05T14:51:42.111Z,72.20
2022-10-05T14:54:33.298Z,71.93
2022-10-05T14:57:22.470Z,71.73
2022-10-05T15:00:19.124Z,70.95
2022-10-05T15:03:05.312Z,72.23
2022-10-05T15:05:39.460Z,71.67
2022-10-05T15:08:11.974Z,70.99
2022-10-05T15:10:52.992Z,71.36
2022-10-05T15:13:23.910Z,70.69
2022-10-05T15:15:56.979Z,70.99
2022-10-05T15:18:32.061Z,70.58
2022-10-05T15:21:17.243Z,71.04
2022-10-05T15:23:50.076Z,72.18
2022-10-05T15:26:22.636Z,71.94
2022-10-05T15:29:27.902Z,71.92
2022-10-05T15:32:07.231Z,71.79
2022-10-05T15:34:49.075Z,69.80
2022-10-05T15:37:25.624Z,69.31
2022-10-05T15:39:59.642Z,68.87
2022-10-05T15:42:32.154Z,68.75
2022-10-05T15:45:15.878Z,69.29
2022-10-05T15:48:01.048Z,70.11
2022-10-05T15:50:29.677Z,70.12
2022-10-05T15:53:13.538Z,70.45
2022-10-05T15:56:25.048Z,69.91
2022-10-05T15:59:02.158Z,68.91
2022-10-05T16:01:29.192Z,69.76
2022-10-05T16:04:14.126Z,68.87
2022-10-05T16:07:16.345Z,69.81
2022-10-05T16:09:53.815Z,69.63
2022-10-05T16:12:42.635Z,69.94
2022-10-05T16:15:26.282Z,69.73
2022-10-05T16:18:31.251Z,69.71
2022-10-05T16:21:27.136Z,70.18
2022-10-05T16:24:24.477Z,70.75
2022-10-05T16:27:04.186Z,70.38
2022-10-05T16:29:49.710Z,70.31
2022-10-05T16:32:22.041Z,70.36
2022-10-05T16:35:16.727Z,70.78
2022-10-05T16:38:05.811Z,72.03
2022-10-05T16:40:38.641Z,71.02
2022-10-05T16:43:30.180Z,71.66
2022-10-05T16:46:10.326Z,72.21
2022-10-05T16:49:26.088Z,71.99
2022-10-05T16:52:01.020Z,72.10
2022-10-05T16:54:37.227Z,71.89
2022-10-05T16:57:17.725Z,72.04
2022-10-05T17:00:22.181Z,71.94
2022-10-05T17:03:03.800Z,72.00
2022-10-05T17:05:58.258Z,71.89
2022-10-05T17:08:45.462Z,72.80
2022-10-05T17:11:33.898Z,72.36
2022-10-05T17:14:06.390Z,72.53
2022-10-05T17:16:56.946Z,72.63
2022-10-05T17:19:46.611Z,73.18
2022-10-05T17:22:26.753Z,72.97
2022-10-05T17:25:03.574Z,72.90
2022-10-05T17:27:51.223Z,72.97
2022-10-05T17:30:31.646Z,72.96
2022-10-05T17:33:04.651Z,73.35
2022-10-05T17:35:58.207Z,73.48
2022-10-05T17:38:30.284Z,73.79
2022-10-05T17:41:06.385Z,73.38
2022-10-05T17:43:33.837Z,73.58
2022-10-05T17:46:03.027Z,73.30
2022-10-05T17:48:49.357Z,73.67
2022-10-05T17:51:35.966Z,73.97
2022-10-05T17:54:41.058Z,73.81
2022-10-05T17:57:07.565Z,73.35
2022-10-05T17:59:44.576Z,73.49
2022-10-05T18:02:20.033Z,74.05
2022-10-05T18:05:15.123Z,74.20
2022-10-05T18:08:08.132Z,74.13
2022-10-05T18:10:37.875Z,74.11
2022-10-05T18:13:33.588Z,74.43
2022-10-05T18:16:00.099Z,74.41
2022-10-05T18:18:54.600Z,74.66
2022-10-05T18:21:30.428Z,74.55
2022-10-05T18:23:58.716Z,74.49
2022-10-05T18:26:43.683Z,74.73
2022-10-05T18:29:59.676Z,74.82
2022-10-05T18:32:50.958Z,74.59
2022-10-05T18:35:44.548Z,74.73
2022-10-05T18:38:43.426Z,74.93
2022-10-05T18:41:18.555Z,75.13
2022-10-05T18:44:08.640Z,75.50
2022-10-05T18:46:55.431Z,75.50
2022-10-05T18:49:43.216Z,75.61
2022-10-05T18:52:30.944Z,75.66
2022-10-05T18:55:18.420Z,75.80
2022-10-05T18:58:00.787Z,75.94
2022-10-05T19:00:42.588Z,76.09
2022-10-05T19:03:23.567Z,75.97
2022-10-05T19:06:22.125Z,76.56
2022-10-05T19:09:03.065Z,76.29
2022-10-05T19:11:55.158Z,76.33
2022-10-05T19:14:31.377Z,76.46
2022-10-05T19:17:16.823Z,76.26
2022-10-05T19:19:56.085Z,76.61
2022-10-05T19:22:42.094Z,76.75
2022-10-05T19:25:32.430Z,76.74
2022-10-05T19:28:14.025Z,77.25
2022-10-05T19:30:46.602Z,76.83
2022-10-05T19:33:31.201Z,76.93
2022-10-05T19:36:26.479Z,77.06
2022-10-05T19:39:08.072Z,77.88
2022-10-05T19:42:05.151Z,77.42
2022-10-05T19:44:46.824Z,77.83
2022-10-05T19:47:47.286Z,77.92
2022-10-05T19:50:22.958Z,78.85
2022-10-05T19:53:02.452Z,79.85
2022-10-05T19:55:35.846Z,80.77
2022-10-05T19:58:17.574Z,81.11
2022-10-05T20:00:47.967Z,81.82
2022-10-05T20:03:18.908Z,82.05
2022-10-05T20:05:45.906Z,82.68
2022-10-05T20:08:17.426Z,84.32
2022-10-05T20:10:44.727Z,85.43
2022-10-05T20:13:22.383Z,87.02
2022-10-05T20:16:35.853Z,85.94
2022-10-05T20:19:43.740Z,86.83
2022-10-05T20:22:35.982Z,87.55
2022-10-05T20:25:18.358Z,88.85
2022-10-05T20:27:55.011Z,89.73
2022-10-05T20:30:27.515Z,90.85
2022-10-05T20:32:58.160Z,91.30
2022-10-05T20:35:27.895Z,92.05
2022-10-05T20:38:00.142Z,92.70
2022-10-05T20:40:29.139Z,93.01
2022-10-05T20:42:56.844Z,93.75
2022-10-05T20:45:23.316Z,94.64
2022-10-05T20:47:50.717Z,94.91
2022-10-05T20:50:17.750Z,95.06
2022-10-05T20:52:44.410Z,95.57
2022-10-05T20:55:11.850Z,95.72
2022-10-05T20:57:42.158Z,96.18
2022-10-05T21:00:12.708Z,96.56
2022-10-05T21:02:39.569Z,96.59
2022-10-05T21:05:07.580Z,97.02
2022-10-05T21:07:35.480Z,97.07
2022-10-05T21:10:03.760Z,97.23
2022-10-05T21:12:30.465Z,97.27
2022-10-05T21:14:56.882Z,97.47
2022-10-05T21:17:23.317Z,97.68
2022-10-05T21:19:50.230Z,97.81
2022-10-05T21:22:16.689Z,97.77
2022-10-05T21:24:43.179Z,97.73
2022-10-05T21:27:10.139Z,97.94
2022-10-05T21:29:37.177Z,98.24
2022-10-05T21:32:08.505Z,98.41
2022-10-05T21:34:35.197Z,98.45
2022-10-05T21:37:01.647Z,98.55
2022-10-05T21:39:28.061Z,98.70
2022-10-05T21:41:54.590Z,98.82
2022-10-05T21:44:21.007Z,98.92
2022-10-05T21:46:48.363Z,99.18
2022-10-05T21:49:19.539Z,99.12
2022-10-05T21:51:47.180Z,99.39
2022-10-05T21:54:20.320Z,99.19
2022-10-05T21:56:51.672Z,99.16
2022-10-05T21:59:21.538Z,99.19
2022-10-05T22:01:47.990Z,99.24
2022-10-05T22:04:15.101Z,99.11
2022-10-05T22:06:41.746Z,99.25
2022-10-05T22:09:08.183Z,99.23
2022-10-05T22:11:34.662Z,99.28
2022-10-05T22:14:03.806Z,99.30
2022-10-05T22:16:33.075Z,99.28
2022-10-05T22:19:03.868Z,99.15
2022-10-05T22:21:32.176Z,98.64
2022-10-05T22:24:01.618Z,99.21
2022-10-05T22:26:28.146Z,98.82
2022-10-05T22:28:57.597Z,98.78
2022-10-05T22:31:24.565Z,98.54
2022-10-05T22:33:51.978Z,98.57
2022-10-05T22:36:19.013Z,98.55
2022-10-05T22:38:47.446Z,98.46
2022-10-05T22:41:15.137Z,98.60
2022-10-05T22:43:41.597Z,98.71
2022-10-05T22:46:12.375Z,98.65
2022-10-05T22:48:39.987Z,98.48
2022-10-05T22:51:08.242Z,98.49
2022-10-05T22:53:35.130Z,98.18
2022-10-05T22:56:10.142Z,98.15
2022-10-05T22:58:37.046Z,97.79
2022-10-05T23:01:05.741Z,98.04
2022-10-05T23:03:32.890Z,97.78
2022-10-05T23:06:03.467Z,97.35
2022-10-05T23:08:34.258Z,97.25
2022-10-05T23:11:09.453Z,97.16
2022-10-05T23:13:36.237Z,96.86
2022-10-05T23:16:14.089Z,96.65
2022-10-05T23:18:41.542Z,96.51
2022-10-05T23:21:09.793Z,96.23
2022-10-05T23:23:37.484Z,96.04
2022-10-05T23:26:05.022Z,95.43
2022-10-05T23:28:32.217Z,95.39
2022-10-05T23:31:04.939Z,95.07
2022-10-05T23:33:31.457Z,95.33
2022-10-05T23:36:03.996Z,95.36
2022-10-05T23:38:31.005Z,95.55
2022-10-05T23:40:58.894Z,95.50
2022-10-05T23:43:26.798Z,95.44
2022-10-05T23:45:54.991Z,95.25
2022-10-05T23:48:21.853Z,95.67
2022-10-05T23:50:49.558Z,95.06
2022-10-05T23:53:17.227Z,94.64
2022-10-05T23:55:43.826Z,93.71
2022-10-05T23:58:11.210Z,93.62
